»·PEaware :: WAT203 KLAS-KONT

WAT203 :: KLAS-KONT

FLIGHT INFORMATION

Flight Status: Arrived
Operator: Unknown
More flights by this operator :: More flights under this callsign
Pilot: Zachary C. (8151)
Aircraft: AIRBUS A321
(A321)
More flights by this aircraft type
Origin: KLAS McCarran Intl
United States
Destination: KONT Ontario Intl
United States
More flights between these airports :: More routes between these airports
Route: BOACH8 WHIGG FEYLA JCKIE2
File this flight plan on PilotEdge
Remarks: RMK / SIMBRIEF
Altitude:
(Current/Filed)
28,000ft
Speed:
(Current/Filed)
442kts
Departed: 20-May-20 09:47 PM
Arrived: 20-May-20 10:23 PM
Distance/Time
Traveled:
171nm/0:35
Distance/Time
To Go:
Arrived

Flight Plot

Page will automatically refresh every two minutes.


Map Options




Map Legend


Flown Route
Filed Route
Departure Airport
Arrival Airport
Navaid (VOR, NDB)
Fix

Horizontal Profiles

Position Reports

Time Latitude Longitude Heading Altitude Ground
Speed
20-May-20 20:59 36.081309 -115.147992 61 2190ft 0kts
20-May-20 21:00 36.081309 -115.147992 61 2190ft 0kts
20-May-20 21:01 36.081309 -115.147992 61 2190ft 0kts
20-May-20 21:02 36.081309 -115.147992 61 2190ft 0kts
20-May-20 21:03 36.081309 -115.147992 61 2190ft 0kts
20-May-20 21:04 36.081309 -115.147992 61 2190ft 0kts
20-May-20 21:05 36.081309 -115.147992 61 2190ft 0kts
20-May-20 21:06 36.081309 -115.147992 61 2190ft 0kts
20-May-20 21:07 36.081309 -115.147992 61 2190ft 0kts
20-May-20 21:08 36.081309 -115.147992 61 2190ft 0kts
20-May-20 21:09 36.081309 -115.147992 61 2190ft 0kts
20-May-20 21:10 36.081309 -115.147992 61 2190ft 0kts
20-May-20 21:11 36.081309 -115.147992 61 2190ft 0kts
20-May-20 21:12 36.081309 -115.147992 61 2190ft 0kts
20-May-20 21:13 36.081309 -115.147992 61 2190ft 0kts
20-May-20 21:14 36.081309 -115.147992 61 2190ft 0kts
20-May-20 21:15 36.081309 -115.147992 61 2190ft 0kts
20-May-20 21:16 36.081309 -115.147992 61 2190ft 0kts
20-May-20 21:17 36.081309 -115.147992 61 2190ft 0kts
20-May-20 21:18 36.081309 -115.147992 61 2190ft 0kts
20-May-20 21:19 36.081309 -115.147992 61 2190ft 0kts
20-May-20 21:20 36.081309 -115.147992 61 2190ft 0kts
20-May-20 21:21 36.081313 -115.148547 121 2190ft 2kts
20-May-20 21:22 36.081584 -115.148809 158 2190ft 0kts
20-May-20 21:23 36.081584 -115.148809 158 2190ft 0kts
20-May-20 21:24 36.081584 -115.148809 158 2190ft 0kts
20-May-20 21:25 36.081584 -115.148809 158 2190ft 0kts
20-May-20 21:26 36.081584 -115.148809 158 2190ft 0kts
20-May-20 21:27 36.081584 -115.148809 158 2190ft 0kts
20-May-20 21:28 36.081584 -115.148809 158 2190ft 0kts
20-May-20 21:29 36.081584 -115.148809 158 2190ft 0kts
20-May-20 21:30 36.081584 -115.148809 158 2190ft 0kts
20-May-20 21:31 36.081577 -115.148806 158 2190ft 0kts
20-May-20 21:32 36.078876 -115.147275 153 2190ft 11kts
20-May-20 21:33 36.078344 -115.144602 95 2190ft 20kts
20-May-20 21:34 36.078270 -115.137804 91 2190ft 11kts
20-May-20 21:35 36.078273 -115.134954 90 2190ft 9kts
20-May-20 21:36 36.078272 -115.131630 90 2190ft 9kts
20-May-20 21:37 36.078273 -115.127466 91 2190ft 13kts
20-May-20 21:38 36.078279 -115.123240 89 2190ft 8kts
20-May-20 21:39 36.078051 -115.122360 128 2190ft 0kts
20-May-20 21:40 36.078051 -115.122360 128 2190ft 0kts
20-May-20 21:41 36.078051 -115.122360 128 2190ft 0kts
20-May-20 21:42 36.078051 -115.122360 128 2190ft 0kts
20-May-20 21:43 36.077605 -115.121691 128 2190ft 1kts
20-May-20 21:44 36.077394 -115.121398 147 2190ft 0kts
20-May-20 21:45 36.076410 -115.121770 265 2190ft 0kts
20-May-20 21:46 36.076383 -115.139329 270 2190ft 163kts
20-May-20 21:47 36.079657 -115.203167 262 4381ft 197kts
20-May-20 21:48 36.053039 -115.265399 200 5734ft 252kts
20-May-20 21:49 35.980747 -115.297193 197 7000ft 286kts
20-May-20 21:50 35.900399 -115.310263 185 9251ft 294kts
20-May-20 21:51 35.814517 -115.310561 174 11095ft 330kts
20-May-20 21:52 35.715784 -115.299106 175 12334ft 383kts
20-May-20 21:53 35.623430 -115.367202 229 13771ft 422kts
20-May-20 21:54 35.543523 -115.476239 229 15867ft 438kts
20-May-20 21:55 35.460171 -115.588295 229 17833ft 451kts
20-May-20 21:56 35.372871 -115.706115 230 19667ft 463kts
20-May-20 21:57 35.284535 -115.824774 230 21270ft 476kts
20-May-20 21:58 35.194073 -115.945543 230 22784ft 486kts
20-May-20 21:59 35.101761 -116.067945 231 24287ft 493kts
20-May-20 22:00 35.009932 -116.188932 231 25969ft 454kts
20-May-20 22:01 34.924983 -116.286457 228 26031ft 386kts
20-May-20 22:02 34.852528 -116.369530 230 25831ft 346kts
20-May-20 22:04 34.787488 -116.452999 236 22281ft 332kts
20-May-20 22:05 34.734729 -116.541293 238 18851ft 320kts
20-May-20 22:06 34.682236 -116.629627 237 17906ft 320kts
20-May-20 22:07 34.630306 -116.717025 236 16726ft 316kts
20-May-20 22:08 34.583786 -116.804834 243 15327ft 303kts
20-May-20 22:09 34.542380 -116.892657 236 13915ft 297kts
20-May-20 22:10 34.490285 -116.968423 230 12599ft 290kts
20-May-20 22:11 34.433436 -117.038592 222 11246ft 299kts
20-May-20 22:12 34.370349 -117.103418 222 10016ft 295kts
20-May-20 22:13 34.308392 -117.166529 222 8809ft 283kts
20-May-20 22:14 34.250363 -117.225364 222 7991ft 251kts
20-May-20 22:15 34.198792 -117.277186 222 7071ft 228kts
20-May-20 22:16 34.153825 -117.322014 222 6091ft 196kts
20-May-20 22:17 34.114772 -117.360690 222 4800ft 170kts
20-May-20 22:18 34.079112 -117.396282 222 3215ft 164kts
20-May-20 22:19 34.052519 -117.435225 267 2977ft 150kts
20-May-20 22:19 34.054681 -117.477289 273 2773ft 143kts
20-May-20 22:21 34.054885 -117.534841 269 1720ft 148kts
20-May-20 22:22 34.054954 -117.584933 268 963ft 138kts
20-May-20 22:22 34.055695 -117.599695 336 952ft 7kts
20-May-20 22:24 34.057011 -117.599838 0 952ft 7kts
20-May-20 22:24 34.059333 -117.599991 340 952ft 7kts
20-May-20 22:25 34.060033 -117.599984 37 952ft 0kts
20-May-20 22:26 34.060033 -117.599984 37 952ft 0kts
20-May-20 22:27 34.060033 -117.599984 37 952ft 0kts
20-May-20 22:28 34.060033 -117.599984 37 952ft 0kts

Navigation Log

Ident Type
Flight plan parsing failed, navigation log unavailable